Time;durP1;ratioP1;P1;durP2;ratioP2;P2;SDS_P1;SDS_P2;PMS_P1;PMS_P2;Temp;Humidity;BMP_temperature;BMP_pressure;BME280_temperature;BME280_humidity;BME280_pressure;Samples;Min_cycle;Max_cycle;Signal;HPM_P1;HPM_P2
2022/03/22 00:01:30;;;;;;;8.75;7.47;;;16.70;44.50;;;;;;5096025;28;20035;-79
2022/03/22 00:04:02;;;;;;;8.45;7.55;;;16.70;44.40;;;;;;5096062;28;20047;-81
2022/03/22 00:06:31;;;;;;;6.88;6.18;;;16.70;44.50;;;;;;5095814;28;20059;-79
2022/03/22 00:08:57;;;;;;;8.82;8.00;;;16.60;44.40;;;;;;5113560;28;20035;-79
2022/03/22 00:11:23;;;;;;;9.00;8.10;;;16.60;44.40;;;;;;5114201;28;20085;-79
2022/03/22 00:13:49;;;;;;;7.55;6.78;;;16.60;44.40;;;;;;5095887;28;20475;-79
2022/03/22 00:16:15;;;;;;;8.77;7.88;;;16.60;44.40;;;;;;5095703;28;20082;-81
2022/03/22 00:18:41;;;;;;;8.80;7.88;;;16.60;44.40;;;;;;5095830;28;20456;-78
2022/03/22 00:21:07;;;;;;;8.48;7.50;;;16.60;44.40;;;;;;5114110;28;20409;-82
2022/03/22 00:23:33;;;;;;;8.63;7.43;;;16.60;44.40;;;;;;5095481;28;20047;-79
2022/03/22 00:25:59;;;;;;;8.98;7.72;;;16.60;44.40;;;;;;5095270;28;20058;-79
2022/03/22 00:28:25;;;;;;;8.82;7.68;;;16.60;44.40;;;;;;5095372;28;20039;-81
2022/03/22 00:30:51;;;;;;;9.15;7.80;;;16.60;44.40;;;;;;5112944;28;20391;-79
2022/03/22 00:33:19;;;;;;;8.35;7.50;;;16.60;44.40;;;;;;5095471;28;20559;-80
2022/03/22 00:35:45;;;;;;;9.07;8.18;;;16.50;44.40;;;;;;5095912;28;20062;-79
2022/03/22 00:38:14;;;;;;;8.40;7.55;;;16.50;44.40;;;;;;5113594;28;20088;-79
2022/03/22 00:40:41;;;;;;;8.52;7.63;;;16.50;44.40;;;;;;5095944;28;20055;-81
2022/03/22 00:43:07;;;;;;;9.07;8.18;;;16.50;44.40;;;;;;5095721;28;20050;-80
2022/03/22 00:45:34;;;;;;;8.18;7.38;;;16.50;44.40;;;;;;5095553;28;20044;-81
2022/03/22 00:48:05;;;;;;;8.98;8.07;;;16.40;44.30;;;;;;5094984;28;20053;-79
2022/03/22 00:50:35;;;;;;;9.30;8.23;;;16.40;44.30;;;;;;5112160;28;20047;-79
2022/03/22 00:53:02;;;;;;;9.80;8.15;;;16.50;44.40;;;;;;5095143;28;20047;-79
2022/03/22 00:55:29;;;;;;;9.68;7.60;;;16.40;44.30;;;;;;5095040;28;20047;-81
2022/03/22 00:57:55;;;;;;;8.75;7.85;;;16.40;44.30;;;;;;5113156;28;20035;-81
2022/03/22 01:00:26;;;;;;;9.25;8.43;;;16.40;44.30;;;;;;5113244;28;20071;-79
2022/03/22 01:02:56;;;;;;;;;;;16.40;44.30;;;;;;5113396;28;20039;-81
2022/03/22 01:05:23;;;;;;;10.10;7.75;;;16.40;44.30;;;;;;5094763;28;19919;-79
2022/03/22 01:07:51;;;;;;;9.52;8.45;;;16.40;44.30;;;;;;5094416;28;20126;-79
2022/03/22 01:10:21;;;;;;;9.10;8.20;;;16.40;44.30;;;;;;5094382;28;20110;-79
2022/03/22 01:12:48;;;;;;;10.02;8.52;;;16.40;44.40;;;;;;5094824;28;20498;-78
2022/03/22 01:15:24;;;;;;;9.50;7.13;;;16.40;44.30;;;;;;5112803;28;20048;-79
2022/03/22 01:17:54;;;;;;;10.18;8.52;;;16.40;44.30;;;;;;5095565;28;20039;-79
2022/03/22 01:20:22;;;;;;;10.52;8.18;;;16.40;44.30;;;;;;5095066;28;20055;-79
2022/03/22 01:22:52;;;;;;;9.18;8.27;;;16.30;44.20;;;;;;5113066;28;20043;-81
2022/03/22 01:25:22;;;;;;;8.95;7.55;;;16.30;44.20;;;;;;5094640;28;20487;-78
2022/03/22 01:27:49;;;;;;;11.23;8.10;;;16.30;44.20;;;;;;5094300;28;20051;-79
2022/03/22 01:30:20;;;;;;;8.70;7.78;;;16.30;44.20;;;;;;5094213;28;20121;-79
2022/03/22 01:32:47;;;;;;;9.57;8.25;;;16.30;44.30;;;;;;5112379;28;20047;-79
2022/03/22 01:35:16;;;;;;;9.25;7.95;;;16.30;44.20;;;;;;5094177;28;20043;-79
2022/03/22 01:37:44;;;;;;;8.52;7.65;;;16.40;44.30;;;;;;5094736;28;20047;-79
2022/03/22 01:40:11;;;;;;;9.52;8.18;;;16.30;44.20;;;;;;5094509;28;20152;-80
2022/03/22 01:42:38;;;;;;;9.13;8.23;;;16.30;44.20;;;;;;5093831;28;20043;-79
2022/03/22 01:45:04;;;;;;;8.75;7.95;;;16.30;44.20;;;;;;5094273;28;20047;-80
2022/03/22 01:47:30;;;;;;;8.90;7.65;;;16.30;44.30;;;;;;5094313;28;20091;-79
2022/03/22 01:49:56;;;;;;;9.25;8.15;;;16.30;44.20;;;;;;5111787;28;20386;-79
2022/03/22 01:52:24;;;;;;;7.72;6.95;;;16.30;44.20;;;;;;5111945;28;20035;-79
2022/03/22 01:54:51;;;;;;;9.60;8.48;;;16.30;44.20;;;;;;5093502;28;20036;-79
2022/03/22 01:57:18;;;;;;;10.60;8.85;;;16.30;44.10;;;;;;5111912;28;20088;-79
2022/03/22 01:59:45;;;;;;;8.52;7.70;;;16.20;44.20;;;;;;5094149;28;20035;-79
2022/03/22 02:07:45;;;;;;;8.10;6.72;;;16.40;44.20;;;;;;5112468;28;20073;-80
2022/03/22 02:10:12;;;;;;;6.63;5.93;;;16.90;43.40;;;;;;5094617;28;20039;-82
2022/03/22 02:12:38;;;;;;;6.90;6.13;;;17.50;42.10;;;;;;5095067;28;20577;-80
2022/03/22 02:15:05;;;;;;;6.22;5.72;;;18.40;40.50;;;;;;5112087;28;20085;-80
2022/03/22 02:17:34;;;;;;;6.47;5.88;;;19.20;38.90;;;;;;5093745;28;20046;-83
2022/03/22 02:20:01;;;;;;;7.25;6.45;;;20.00;37.60;;;;;;5112199;28;20153;-80
2022/03/22 02:22:50;;;;;;;5.80;5.00;;;20.60;36.40;;;;;;5094122;28;20036;-81
2022/03/22 02:25:16;;;;;;;6.63;6.03;;;21.20;35.60;;;;;;5112297;28;20169;-81
2022/03/22 02:27:44;;;;;;;7.47;6.05;;;21.60;34.60;;;;;;5093957;28;20134;-81
2022/03/22 02:30:12;;;;;;;6.13;5.53;;;22.00;34.00;;;;;;5111369;28;20039;-82
2022/03/22 02:32:38;;;;;;;7.38;5.60;;;22.30;33.50;;;;;;5093775;28;20100;-83
2022/03/22 02:35:05;;;;;;;7.15;5.90;;;22.60;32.90;;;;;;5111799;28;20044;-80
2022/03/22 02:37:31;;;;;;;7.20;5.72;;;22.90;33.20;;;;;;5093953;28;20071;-81
2022/03/22 02:40:00;;;;;;;5.93;5.32;;;23.10;32.10;;;;;;5093665;28;20504;-82
2022/03/22 02:42:25;;;;;;;5.57;5.07;;;23.30;31.80;;;;;;5112190;28;20118;-80
2022/03/22 02:44:51;;;;;;;7.03;5.97;;;23.50;31.60;;;;;;5093880;28;20427;-81
2022/03/22 02:47:17;;;;;;;6.70;6.00;;;23.60;31.30;;;;;;5093395;28;20038;-81
2022/03/22 02:49:42;;;;;;;6.50;5.90;;;23.70;31.10;;;;;;5110993;28;20399;-81
2022/03/22 02:52:08;;;;;;;6.70;5.35;;;23.90;30.80;;;;;;5111352;28;20387;-81
2022/03/22 02:54:34;;;;;;;5.68;5.18;;;24.00;30.70;;;;;;5093283;28;20058;-82
2022/03/22 02:57:00;;;;;;;5.38;4.88;;;24.10;30.50;;;;;;5093133;28;20043;-80
2022/03/22 02:59:28;;;;;;;5.90;5.40;;;24.20;30.30;;;;;;5093614;28;20044;-83
2022/03/22 03:01:57;;;;;;;6.95;5.68;;;24.40;30.20;;;;;;5093808;28;20100;-82
2022/03/22 03:04:23;;;;;;;5.20;4.70;;;24.40;30.00;;;;;;5111713;28;20042;-81
2022/03/22 03:06:48;;;;;;;5.85;5.22;;;24.50;30.00;;;;;;5092722;28;20048;-82
2022/03/22 03:09:14;;;;;;;7.18;5.88;;;24.50;29.90;;;;;;5110416;28;20036;-80
2022/03/22 03:11:40;;;;;;;5.30;4.80;;;24.60;29.80;;;;;;5092490;28;20040;-82
2022/03/22 03:14:40;;;;;;;5.03;4.57;;;24.70;29.80;;;;;;5113859;28;20553;-81
2022/03/22 03:16:54;;;;;;;5.78;5.22;;;24.70;29.70;;;;;;5096132;28;20047;-79
2022/03/22 03:19:20;;;;;;;6.25;5.53;;;24.80;29.60;;;;;;5097190;28;20059;-80
2022/03/22 03:21:48;;;;;;;5.57;5.03;;;24.90;29.50;;;;;;5115421;28;20039;-82
2022/03/22 03:24:17;;;;;;;6.32;4.97;;;24.90;29.50;;;;;;5096795;28;20058;-81
2022/03/22 03:26:42;;;;;;;5.82;5.32;;;24.90;29.40;;;;;;5096163;28;20042;-80
2022/03/22 03:29:09;;;;;;;5.57;5.07;;;25.00;29.30;;;;;;5096543;28;20031;-81
2022/03/22 03:31:38;;;;;;;5.50;4.88;;;25.00;29.20;;;;;;5113971;28;20039;-83
2022/03/22 03:34:04;;;;;;;5.70;5.20;;;25.10;29.20;;;;;;5114564;28;20039;-81
2022/03/22 03:36:39;;;;;;;5.43;4.95;;;25.10;29.10;;;;;;5095861;28;20398;-81
2022/03/22 03:39:04;;;;;;;5.93;5.35;;;25.20;29.10;;;;;;5096588;28;20040;-82
2022/03/22 03:42:02;;;;;;;5.63;5.13;;;25.20;29.00;;;;;;5096858;28;20044;-82
2022/03/22 03:47:08;;;;;;;5.80;5.30;;;25.30;29.00;;;;;;5095258;28;20598;-81
2022/03/22 03:49:37;;;;;;;5.80;5.30;;;25.30;28.90;;;;;;5095615;28;20047;-80
2022/03/22 03:52:05;;;;;;;5.50;4.90;;;25.30;28.90;;;;;;5095347;28;20035;-82
2022/03/22 03:54:31;;;;;;;6.22;5.60;;;25.30;29.00;;;;;;5114157;28;20035;-79
2022/03/22 03:56:57;;;;;;;4.85;4.43;;;25.10;29.00;;;;;;5095303;28;20040;-79
2022/03/22 03:59:23;;;;;;;6.10;5.53;;;25.00;29.20;;;;;;5096177;28;20044;-82
2022/03/22 04:01:49;;;;;;;5.47;4.95;;;24.90;29.30;;;;;;5095946;28;20497;-82
2022/03/22 04:04:15;;;;;;;5.97;5.32;;;24.70;29.40;;;;;;5114123;28;20105;-80
2022/03/22 04:06:41;;;;;;;6.25;5.65;;;24.60;29.50;;;;;;5113270;28;20052;-82
2022/03/22 04:09:06;;;;;;;6.03;5.43;;;24.70;29.50;;;;;;5095189;28;20108;-82
2022/03/22 04:11:32;;;;;;;5.60;5.10;;;24.70;29.30;;;;;;5095466;28;20489;-81
2022/03/22 04:13:58;;;;;;;5.53;5.03;;;24.90;29.20;;;;;;5112767;28;20482;-80
2022/03/22 04:16:26;;;;;;;6.05;5.15;;;25.10;29.00;;;;;;5113145;28;20075;-81
2022/03/22 04:18:52;;;;;;;5.40;4.90;;;25.20;28.90;;;;;;5095783;28;20040;-80
2022/03/22 04:21:18;;;;;;;5.68;5.05;;;25.20;28.80;;;;;;5114280;28;20051;-80
2022/03/22 04:23:43;;;;;;;5.60;5.10;;;25.30;28.70;;;;;;5096034;28;20130;-81
2022/03/22 04:26:09;;;;;;;5.40;5.00;;;25.40;28.70;;;;;;5113830;28;20440;-81
2022/03/22 04:34:06;;;;;;;5.53;5.03;;;25.50;28.50;;;;;;5094685;28;20054;-82
2022/03/22 04:36:31;;;;;;;5.47;5.07;;;25.70;29.10;;;;;;5094351;28;20588;-80
2022/03/22 04:38:57;;;;;;;6.40;5.70;;;25.70;28.40;;;;;;5113526;28;20078;-80
2022/03/22 04:41:23;;;;;;;5.50;4.93;;;25.80;28.40;;;;;;5113220;28;20039;-80
2022/03/22 04:43:50;;;;;;;6.53;5.82;;;25.80;28.30;;;;;;5113298;28;20035;-80
2022/03/22 04:46:18;;;;;;;5.95;5.38;;;25.90;28.30;;;;;;5094487;28;20095;-81
2022/03/22 04:48:45;;;;;;;5.53;4.97;;;25.80;28.20;;;;;;5094537;28;20048;-80
2022/03/22 04:56:48;;;;;;;6.60;5.50;;;26.00;28.10;;;;;;5094304;28;20039;-84
2022/03/22 04:59:16;;;;;;;5.60;5.15;;;26.00;28.10;;;;;;5095065;28;20110;-80
2022/03/22 05:01:42;;;;;;;6.30;5.70;;;26.10;28.10;;;;;;5095156;28;20654;-80
2022/03/22 05:04:10;;;;;;;5.97;5.45;;;26.00;28.00;;;;;;5095235;28;20071;-80
2022/03/22 05:06:38;;;;;;;6.00;5.45;;;26.10;28.00;;;;;;5112656;28;20059;-83
2022/03/22 05:09:05;;;;;;;5.78;5.28;;;26.10;28.00;;;;;;5112330;28;20076;-80
2022/03/22 05:11:34;;;;;;;5.28;4.88;;;26.20;27.90;;;;;;5093904;28;20031;-80
2022/03/22 05:14:00;;;;;;;5.70;4.95;;;26.20;27.80;;;;;;5094299;28;20035;-81
2022/03/22 05:16:26;;;;;;;5.90;5.38;;;26.30;27.80;;;;;;5094230;28;20075;-79
2022/03/22 05:18:57;;;;;;;5.93;5.40;;;26.30;27.70;;;;;;5112640;28;20027;-79
2022/03/22 05:21:24;;;;;;;5.85;5.25;;;26.40;27.60;;;;;;5112499;28;20039;-80
2022/03/22 05:23:51;;;;;;;5.68;5.10;;;26.60;27.50;;;;;;5094119;28;20686;-80
2022/03/22 05:26:17;;;;;;;5.80;5.30;;;26.80;27.40;;;;;;5093967;28;20043;-79
2022/03/22 05:28:44;;;;;;;5.57;5.07;;;27.00;27.30;;;;;;5094048;28;20055;-80
2022/03/22 05:31:14;;;;;;;5.47;5.07;;;27.10;27.10;;;;;;5111037;28;20118;-79
2022/03/22 05:33:40;;;;;;;5.88;5.35;;;27.30;27.00;;;;;;5093631;28;20127;-81
2022/03/22 05:36:07;;;;;;;6.70;6.00;;;27.40;26.90;;;;;;5093355;28;20042;-79
2022/03/22 05:38:33;;;;;;;5.45;5.05;;;27.50;26.80;;;;;;5112382;28;20391;-79
2022/03/22 05:41:03;;;;;;;5.93;5.43;;;27.60;26.70;;;;;;5112820;28;20034;-79
2022/03/22 05:43:30;;;;;;;5.10;4.70;;;27.70;26.70;;;;;;5094195;28;20089;-80
2022/03/22 05:45:56;;;;;;;5.75;5.03;;;27.70;26.60;;;;;;5094012;28;20040;-81
2022/03/22 05:48:24;;;;;;;6.60;5.93;;;27.70;26.60;;;;;;5112177;28;20042;-79
2022/03/22 05:50:50;;;;;;;5.57;5.07;;;27.70;26.60;;;;;;5111676;28;20039;-81
2022/03/22 05:53:16;;;;;;;5.50;5.00;;;27.70;26.50;;;;;;5093225;28;20039;-80
2022/03/22 05:55:42;;;;;;;5.50;5.00;;;27.70;26.50;;;;;;5093620;28;20057;-79
2022/03/22 05:58:08;;;;;;;5.50;4.57;;;27.70;26.50;;;;;;5111934;28;20039;-79
2022/03/22 06:00:38;;;;;;;5.68;4.68;;;27.60;26.50;;;;;;5094304;28;20039;-80
2022/03/22 06:03:03;;;;;;;5.70;5.20;;;27.70;26.60;;;;;;5094383;28;20126;-79
2022/03/22 06:05:29;;;;;;;5.63;5.07;;;27.60;26.50;;;;;;5111982;28;20143;-80
2022/03/22 06:07:59;;;;;;;5.65;5.07;;;27.60;26.60;;;;;;5111656;28;20122;-80
2022/03/22 06:10:26;;;;;;;5.90;5.35;;;27.50;26.60;;;;;;5093656;28;20122;-79
2022/03/22 06:12:56;;;;;;;5.72;5.22;;;27.50;26.60;;;;;;5093014;28;20513;-81
2022/03/22 06:15:24;;;;;;;;;;;27.50;26.60;;;;;;5094010;28;20042;-79
2022/03/22 06:17:55;;;;;;;5.45;4.97;;;27.40;26.70;;;;;;5093002;28;19919;-81
2022/03/22 06:20:24;;;;;;;5.10;4.70;;;27.40;26.60;;;;;;5112044;28;20034;-80
2022/03/22 06:22:50;;;;;;;6.28;5.70;;;27.40;26.80;;;;;;5093878;28;20065;-81
2022/03/22 06:25:18;;;;;;;5.90;5.40;;;27.40;26.70;;;;;;5093853;28;20042;-80
2022/03/22 06:27:48;;;;;;;5.65;5.20;;;27.40;26.60;;;;;;5111616;28;20039;-80
2022/03/22 06:30:15;;;;;;;5.40;5.00;;;27.50;26.60;;;;;;5105093;28;20110;-76
2022/03/22 06:35:30;;;;;;;5.97;5.47;;;27.30;27.00;;;;;;5104238;27;1269682;-78
2022/03/22 06:37:57;;;;;;;6.95;6.35;;;26.90;27.30;;;;;;5119262;27;20083;-80
2022/03/22 06:40:27;;;;;;;7.07;6.45;;;26.50;27.60;;;;;;5119147;27;20080;-78
2022/03/22 06:42:53;;;;;;;;;;;26.20;27.90;;;;;;5109067;28;20159;-80
2022/03/22 06:45:19;;;;;;;7.55;6.78;;;25.90;28.10;;;;;;5110973;28;19920;-79
2022/03/22 06:47:46;;;;;;;8.93;8.05;;;25.80;28.40;;;;;;5112724;28;20035;-79
2022/03/22 06:50:14;;;;;;;8.75;7.95;;;25.70;28.50;;;;;;5107892;28;20059;-78
2022/03/22 06:52:43;;;;;;;10.73;8.00;;;25.60;28.60;;;;;;5104060;28;20042;-79
2022/03/22 06:55:16;;;;;;;8.00;7.35;;;25.40;28.50;;;;;;5109408;27;20043;-78
2022/03/22 06:57:42;;;;;;;7.82;7.03;;;25.30;28.60;;;;;;5104587;28;20153;-79
2022/03/22 07:00:10;;;;;;;9.95;7.63;;;25.20;28.70;;;;;;5123868;27;20023;-79
2022/03/22 07:02:41;;;;;;;8.77;7.90;;;25.20;28.80;;;;;;5120195;27;20042;-79
2022/03/22 07:05:08;;;;;;;8.32;7.35;;;25.10;28.90;;;;;;5122547;28;20081;-79
2022/03/22 07:07:35;;;;;;;8.23;7.53;;;25.00;29.00;;;;;;5108836;28;20141;-80
2022/03/22 07:10:02;;;;;;;6.95;6.38;;;25.00;29.70;;;;;;5124308;28;20050;-78
2022/03/22 07:12:28;;;;;;;8.00;6.95;;;25.00;29.20;;;;;;5115224;27;20283;-81
2022/03/22 07:14:54;;;;;;;7.95;7.25;;;24.90;29.40;;;;;;5108893;27;20500;-77
2022/03/22 07:17:20;;;;;;;8.27;7.07;;;24.90;29.50;;;;;;5106528;27;20062;-78
2022/03/22 07:19:47;;;;;;;8.95;7.60;;;24.90;29.50;;;;;;5091264;27;20105;-82
2022/03/22 07:22:12;;;;;;;7.07;6.47;;;24.80;29.60;;;;;;5087524;28;20140;-78
2022/03/22 07:24:38;;;;;;;8.35;7.38;;;24.70;29.90;;;;;;5097043;28;20700;-78
2022/03/22 07:27:04;;;;;;;12.00;6.78;;;24.70;30.20;;;;;;5107246;28;20039;-81
2022/03/22 07:29:33;;;;;;;6.82;6.20;;;24.60;30.50;;;;;;5096193;27;20616;-82
2022/03/22 07:31:59;;;;;;;6.95;6.10;;;24.60;30.80;;;;;;5108784;27;20044;-82
2022/03/22 07:34:27;;;;;;;6.18;5.57;;;24.60;30.80;;;;;;5092522;27;21740;-81
2022/03/22 07:36:53;;;;;;;7.65;6.40;;;24.50;31.20;;;;;;5086350;27;20146;-72
2022/03/22 07:39:21;;;;;;;9.05;8.10;;;24.50;31.50;;;;;;5095655;28;20032;-80
2022/03/22 07:41:48;;;;;;;9.65;8.73;;;24.40;31.60;;;;;;5099293;28;20161;-73
2022/03/22 07:44:13;;;;;;;11.75;9.43;;;24.20;31.60;;;;;;5095922;27;20063;-79
2022/03/22 07:46:40;;;;;;;12.20;8.93;;;24.10;32.20;;;;;;5088539;27;20138;-79
2022/03/22 07:54:39;;;;;;;10.23;9.18;;;23.90;33.10;;;;;;5092338;28;20080;-73
2022/03/22 07:57:07;;;;;;;10.27;7.85;;;24.00;33.20;;;;;;5091410;28;20071;-75
2022/03/22 07:59:35;;;;;;;8.23;7.43;;;23.90;33.40;;;;;;5079121;28;20067;-72
2022/03/22 08:02:02;;;;;;;9.35;7.10;;;23.90;33.80;;;;;;5081230;28;20044;-70
2022/03/22 08:04:33;;;;;;;10.02;6.80;;;24.00;33.80;;;;;;5091948;28;20456;-71
2022/03/22 08:06:59;;;;;;;10.30;6.80;;;24.10;33.70;;;;;;5073453;28;20096;-73
2022/03/22 08:09:25;;;;;;;7.13;6.43;;;24.20;33.60;;;;;;5083359;28;20079;-78
2022/03/22 08:11:51;;;;;;;9.50;6.15;;;24.30;33.60;;;;;;5079707;28;20062;-74
2022/03/22 08:14:20;;;;;;;7.97;6.47;;;24.30;33.50;;;;;;5082464;28;20047;-74
2022/03/22 08:16:46;;;;;;;8.80;6.15;;;24.30;33.60;;;;;;5091713;28;20039;-70
2022/03/22 08:19:17;;;;;;;11.98;7.45;;;24.30;33.70;;;;;;5089927;27;20142;-74
2022/03/22 08:21:43;;;;;;;8.68;5.82;;;24.20;33.90;;;;;;5076740;28;20118;-71
2022/03/22 08:24:15;;;;;;;7.90;6.32;;;24.10;34.00;;;;;;5078641;27;20185;-82
2022/03/22 08:26:41;;;;;;;10.65;6.93;;;24.10;34.20;;;;;;5078831;27;20075;-76
2022/03/22 08:29:07;;;;;;;7.75;7.00;;;24.00;34.30;;;;;;5077241;28;20126;-73
2022/03/22 08:31:33;;;;;;;13.73;6.97;;;23.90;34.30;;;;;;5095339;28;20047;-77
2022/03/22 08:33:58;;;;;;;9.60;7.07;;;23.70;34.40;;;;;;5086115;28;20499;-78
2022/03/22 08:36:24;;;;;;;9.90;6.68;;;23.60;34.70;;;;;;5083449;28;20044;-82
2022/03/22 08:38:51;;;;;;;9.20;6.97;;;23.50;34.80;;;;;;5083638;28;20031;-80
2022/03/22 08:41:17;;;;;;;7.63;6.55;;;23.40;35.10;;;;;;5089945;27;20077;-78
2022/03/22 08:43:43;;;;;;;12.52;6.80;;;23.30;35.30;;;;;;5077147;28;20068;-79
2022/03/22 08:46:09;;;;;;;7.70;6.95;;;23.20;35.50;;;;;;5078612;28;20032;-78
2022/03/22 08:48:34;;;;;;;12.50;8.00;;;23.10;35.60;;;;;;5083345;28;20104;-79
2022/03/22 08:51:01;;;;;;;9.18;8.20;;;23.00;35.70;;;;;;5082928;28;20043;-78
2022/03/22 08:53:27;;;;;;;11.80;7.22;;;22.90;36.10;;;;;;5086919;28;20039;-75
2022/03/22 08:55:53;;;;;;;8.75;6.95;;;22.80;36.30;;;;;;5080595;28;20032;-83
2022/03/22 08:58:19;;;;;;;9.35;7.55;;;22.70;36.60;;;;;;5083286;28;20100;-75
2022/03/22 09:00:51;;;;;;;9.50;6.90;;;22.60;36.80;;;;;;5080776;28;20040;-81
2022/03/22 09:03:19;;;;;;;12.52;6.90;;;22.40;37.00;;;;;;5073100;28;20357;-78
2022/03/22 09:06:18;;;;;;;10.00;7.75;;;22.40;37.20;;;;;;5083124;28;20121;-75
2022/03/22 09:08:30;;;;;;;8.55;7.65;;;22.30;37.40;;;;;;5077327;28;20062;-75
2022/03/22 09:11:02;;;;;;;14.52;7.97;;;22.20;37.50;;;;;;5080550;28;21298;-77
2022/03/22 09:13:28;;;;;;;11.48;7.85;;;22.10;37.90;;;;;;5091318;28;20835;-81
2022/03/22 09:15:54;;;;;;;10.48;7.38;;;22.10;38.10;;;;;;5091264;28;20387;-84
2022/03/22 09:18:24;;;;;;;11.07;8.07;;;22.00;38.10;;;;;;5081528;28;20052;-72
2022/03/22 09:20:51;;;;;;;9.55;7.93;;;22.00;38.30;;;;;;5083933;28;20096;-78
2022/03/22 09:23:17;;;;;;;16.63;8.23;;;21.90;38.00;;;;;;5085681;28;20039;-77
2022/03/22 09:25:44;;;;;;;10.15;8.25;;;21.90;37.90;;;;;;5083797;28;20160;-76
2022/03/22 09:28:10;;;;;;;14.38;9.00;;;21.80;38.00;;;;;;5080412;28;20035;-80
2022/03/22 09:30:38;;;;;;;10.25;7.68;;;21.80;38.00;;;;;;5080039;28;20047;-78
2022/03/22 09:33:04;;;;;;;9.70;7.47;;;21.70;38.10;;;;;;5082925;28;20543;-76
2022/03/22 09:35:31;;;;;;;14.18;8.65;;;21.60;38.30;;;;;;5075712;28;20075;-74
2022/03/22 09:37:59;;;;;;;8.35;7.45;;;21.60;38.50;;;;;;5069004;28;20498;-71
2022/03/22 09:40:26;;;;;;;9.95;8.20;;;21.60;38.70;;;;;;5081794;28;20145;-75
2022/03/22 09:42:54;;;;;;;9.10;7.95;;;21.60;38.50;;;;;;5080150;28;20055;-75
2022/03/22 09:45:24;;;;;;;12.40;11.20;;;21.50;38.00;;;;;;5078596;28;20443;-77
2022/03/22 09:47:50;;;;;;;;;;;21.50;37.20;;;;;;5071989;28;20082;-76
2022/03/22 09:50:17;;;;;;;13.38;8.45;;;21.40;36.70;;;;;;5074690;28;19955;-75
2022/03/22 09:52:44;;;;;;;18.02;10.25;;;21.40;37.20;;;;;;5073079;28;20055;-81
2022/03/22 09:55:12;;;;;;;11.07;9.20;;;21.40;37.70;;;;;;5066176;28;20127;-76
2022/03/22 09:57:38;;;;;;;14.30;8.82;;;21.40;37.40;;;;;;5068153;28;20044;-77
2022/03/22 10:00:05;;;;;;;11.68;7.90;;;21.40;38.10;;;;;;5080501;28;20154;-77
2022/03/22 10:02:33;;;;;;;8.73;7.70;;;21.40;37.50;;;;;;5078434;28;20059;-80
2022/03/22 10:04:59;;;;;;;9.15;7.78;;;21.40;37.50;;;;;;5075331;28;20046;-81
2022/03/22 10:07:29;;;;;;;12.13;9.60;;;21.40;37.50;;;;;;5070224;28;20953;-71
2022/03/22 10:09:58;;;;;;;16.05;11.00;;;21.50;37.20;;;;;;5074632;28;20048;-80
2022/03/22 10:17:47;;;;;;;10.60;8.68;;;21.50;37.00;;;;;;5064921;27;20436;-77
2022/03/22 10:20:27;;;;;;;14.18;9.25;;;21.50;37.20;;;;;;5054767;28;20041;-76
2022/03/22 10:22:55;;;;;;;13.15;8.68;;;21.50;37.20;;;;;;5052400;28;20658;-75
2022/03/22 10:25:22;;;;;;;10.65;7.32;;;21.50;37.10;;;;;;5051550;28;20384;-75
2022/03/22 10:27:52;;;;;;;10.55;7.70;;;21.50;37.20;;;;;;5054693;28;20285;-76
2022/03/22 10:30:22;;;;;;;10.57;8.02;;;21.50;37.20;;;;;;5072342;28;20112;-76
2022/03/22 10:32:52;;;;;;;9.38;7.28;;;21.60;37.30;;;;;;5052640;28;20045;-76
2022/03/22 10:38:03;;;;;;;9.77;7.32;;;21.50;37.30;;;;;;5121391;27;20476;-76
2022/03/22 10:43:11;;;;;;;10.10;7.25;;;21.60;37.40;;;;;;5124688;27;1165553;-77
2022/03/22 10:48:27;;;;;;;7.47;6.68;;;21.60;37.50;;;;;;5090879;27;20059;-78
2022/03/22 10:50:55;;;;;;;8.68;6.00;;;21.60;37.60;;;;;;5059786;28;20076;-77
2022/03/22 10:53:23;;;;;;;6.03;5.40;;;21.60;37.60;;;;;;5072887;28;20040;-80
2022/03/22 10:55:50;;;;;;;8.50;6.55;;;21.60;37.70;;;;;;5072896;28;20044;-78
2022/03/22 10:58:21;;;;;;;7.63;6.00;;;21.60;37.60;;;;;;5056232;28;20044;-77
2022/03/22 11:00:48;;;;;;;9.30;7.03;;;21.50;37.60;;;;;;5056115;28;20093;-74
2022/03/22 11:03:15;;;;;;;8.02;6.82;;;21.60;37.60;;;;;;5074857;28;20048;-75
2022/03/22 11:05:54;;;;;;;10.60;7.75;;;21.60;38.40;;;;;;5058194;28;20040;-82
2022/03/22 11:08:22;;;;;;;11.82;7.45;;;21.60;37.60;;;;;;5055278;28;20453;-76
2022/03/22 11:10:51;;;;;;;9.95;8.10;;;21.60;37.60;;;;;;5073870;28;20043;-80
2022/03/22 11:13:17;;;;;;;10.90;8.52;;;21.60;37.60;;;;;;5058561;28;20032;-74
2022/03/22 11:15:49;;;;;;;11.60;10.07;;;21.60;37.60;;;;;;5057805;28;20044;-76
2022/03/22 11:18:19;;;;;;;9.63;8.55;;;21.60;37.40;;;;;;5057963;28;20514;-76
2022/03/22 11:20:50;;;;;;;10.93;8.23;;;21.60;37.60;;;;;;5054727;28;20181;-75
2022/03/22 11:23:20;;;;;;;10.93;8.43;;;21.50;37.60;;;;;;5057434;28;20119;-77
2022/03/22 11:25:45;;;;;;;14.20;8.35;;;21.50;37.70;;;;;;5054522;28;20181;-80
2022/03/22 11:28:16;;;;;;;9.55;7.45;;;21.50;37.80;;;;;;5057100;28;20040;-75
2022/03/22 11:30:46;;;;;;;7.18;6.47;;;21.40;37.80;;;;;;5074741;28;20047;-75
2022/03/22 11:36:11;;;;;;;14.55;7.82;;;21.40;37.80;;;;;;5055119;28;19981;-75
2022/03/22 11:38:54;;;;;;;10.80;7.13;;;21.30;37.80;;;;;;5060951;28;20621;-77
2022/03/22 11:44:21;;;;;;;11.02;6.55;;;21.30;37.90;;;;;;5072652;28;20048;-77
2022/03/22 11:46:59;;;;;;;13.05;7.10;;;21.30;38.00;;;;;;5051521;28;20056;-78
2022/03/22 11:49:25;;;;;;;10.77;7.90;;;21.30;38.00;;;;;;5050051;28;20486;-81
2022/03/22 11:51:57;;;;;;;8.70;6.32;;;21.30;38.10;;;;;;5055500;28;20048;-77
2022/03/22 11:54:28;;;;;;;8.27;5.68;;;21.20;38.00;;;;;;5073429;28;20094;-76
2022/03/22 11:56:59;;;;;;;8.02;6.28;;;21.20;38.00;;;;;;5055554;28;20033;-76
2022/03/22 11:59:25;;;;;;;7.95;5.97;;;21.30;38.20;;;;;;5042424;28;20121;-76
2022/03/22 12:02:12;;;;;;;11.00;6.93;;;21.30;38.30;;;;;;5061351;28;20039;-77
2022/03/22 12:10:11;;;;;;;9.20;7.68;;;21.20;38.20;;;;;;5095167;27;21849;-74
2022/03/22 12:12:37;;;;;;;9.15;7.40;;;21.20;38.40;;;;;;5085496;28;20168;-78
2022/03/22 12:15:06;;;;;;;11.07;7.15;;;21.20;38.40;;;;;;5101657;28;20111;-83
2022/03/22 12:17:33;;;;;;;9.27;7.07;;;21.30;38.60;;;;;;5092764;28;20920;-79
2022/03/22 12:20:01;;;;;;;8.93;6.70;;;21.30;38.70;;;;;;5091489;28;20043;-77
2022/03/22 12:22:29;;;;;;;9.98;6.68;;;21.30;38.80;;;;;;5091128;28;20036;-77
2022/03/22 12:24:58;;;;;;;8.50;6.20;;;21.30;38.80;;;;;;5096563;28;20048;-77
2022/03/22 12:27:25;;;;;;;8.43;7.03;;;21.40;39.00;;;;;;5085758;28;20100;-77
2022/03/22 12:29:53;;;;;;;9.85;6.40;;;21.40;39.20;;;;;;5092816;28;20358;-79
2022/03/22 12:32:21;;;;;;;7.00;6.38;;;21.40;39.10;;;;;;5093774;28;20043;-77
2022/03/22 12:34:48;;;;;;;8.52;6.47;;;21.40;39.00;;;;;;5095084;28;20035;-74
2022/03/22 12:37:17;;;;;;;10.23;6.38;;;21.40;39.80;;;;;;5092949;28;20044;-74
2022/03/22 12:39:44;;;;;;;16.90;8.60;;;21.40;39.10;;;;;;5096122;28;20422;-71
2022/03/22 12:42:12;;;;;;;15.82;9.68;;;21.40;39.00;;;;;;5094965;28;20038;-76
2022/03/22 12:44:38;;;;;;;12.90;9.18;;;21.40;38.80;;;;;;5094925;28;20051;-70
2022/03/22 12:47:05;;;;;;;15.00;9.13;;;21.40;38.60;;;;;;5090764;28;20452;-77
2022/03/22 12:49:34;;;;;;;12.05;8.45;;;21.40;38.70;;;;;;5094124;28;20134;-83
2022/03/22 12:52:01;;;;;;;9.77;7.00;;;21.40;38.80;;;;;;5095694;28;20053;-78
2022/03/22 12:54:32;;;;;;;10.95;8.10;;;21.40;39.00;;;;;;5095549;28;20064;-77
2022/03/22 12:57:01;;;;;;;12.85;8.82;;;21.40;39.00;;;;;;5093383;28;20048;-78
2022/03/22 12:59:30;;;;;;;9.68;7.82;;;21.40;38.90;;;;;;5099727;28;20062;-77
2022/03/22 13:01:57;;;;;;;11.30;7.57;;;21.40;39.10;;;;;;5111232;28;20483;-76
2022/03/22 13:04:30;;;;;;;11.25;8.00;;;21.40;39.10;;;;;;5094507;28;20043;-76
2022/03/22 13:06:58;;;;;;;11.65;8.23;;;21.50;39.40;;;;;;5092229;28;20054;-75
2022/03/22 13:12:13;;;;;;;11.70;7.75;;;21.50;39.40;;;;;;5091084;28;20123;-77
2022/03/22 13:15:14;;;;;;;10.75;7.40;;;21.50;39.40;;;;;;5090239;28;20051;-76
2022/03/22 13:17:30;;;;;;;9.68;6.53;;;21.50;39.40;;;;;;5085776;28;20043;-71
2022/03/22 13:19:57;;;;;;;7.90;6.82;;;21.50;39.40;;;;;;5101610;27;20097;-74
2022/03/22 13:22:27;;;;;;;10.52;6.45;;;21.60;39.50;;;;;;5081474;28;20044;-76
2022/03/22 13:25:09;;;;;;;9.60;6.43;;;21.60;39.60;;;;;;5072819;28;20047;-76
2022/03/22 13:27:36;;;;;;;9.93;5.85;;;21.60;39.80;;;;;;5076020;28;20070;-75
2022/03/22 13:30:15;;;;;;;11.75;7.47;;;21.60;39.70;;;;;;5082225;28;20074;-77
2022/03/22 13:32:40;;;;;;;13.25;6.38;;;21.60;39.80;;;;;;5077947;28;20050;-79
2022/03/22 13:35:06;;;;;;;7.72;6.22;;;21.60;40.10;;;;;;5081218;28;21030;-81
2022/03/22 13:37:50;;;;;;;8.63;5.90;;;21.60;41.00;;;;;;5075091;28;20051;-83
2022/03/22 13:40:19;;;;;;;11.63;5.63;;;21.60;40.40;;;;;;5100621;27;20594;-78
2022/03/22 13:43:09;;;;;;;10.00;6.53;;;21.70;40.10;;;;;;5078306;28;20058;-75
2022/03/22 13:45:52;;;;;;;12.50;7.05;;;21.60;40.00;;;;;;5079570;28;20484;-76